Time;durP1;ratioP1;P1;durP2;ratioP2;P2;SDS_P1;SDS_P2;PMS_P1;PMS_P2;Temp;Humidity;BMP_temperature;BMP_pressure;BME280_temperature;BME280_humidity;BME280_pressure;Samples;Min_cycle;Max_cycle;Signal;HPM_P1;HPM_P2
2021/04/20 00:00:10;;;;;;;33.95;23.65;;;;;;;;;;5077846;28;20418;-61
2021/04/20 00:02:55;;;;;;;32.05;24.13;;;;;;;;;;5078231;28;20418;-60
2021/04/20 00:05:41;;;;;;;28.98;22.83;;;;;;;;;;5063010;28;20075;-62
2021/04/20 00:08:27;;;;;;;36.40;23.90;;;;;;;;;;5077468;28;20049;-62
2021/04/20 00:11:12;;;;;;;31.42;22.48;;;;;;;;;;5077802;28;20040;-61
2021/04/20 00:13:58;;;;;;;31.63;23.95;;;;;;;;;;5076541;28;20418;-61
2021/04/20 00:16:44;;;;;;;31.70;23.27;;;;;;;;;;5077961;28;20740;-62
2021/04/20 00:19:29;;;;;;;32.22;23.10;;;;;;;;;;5077836;28;20048;-62
2021/04/20 00:22:15;;;;;;;29.48;22.88;;;;;;;;;;5078081;28;20052;-62
2021/04/20 00:25:02;;;;;;;32.63;23.17;;;;;;;;;;5069025;28;20048;-61
2021/04/20 00:27:47;;;;;;;32.03;22.95;;;;;;;;;;5073436;28;20053;-62
2021/04/20 00:30:33;;;;;;;33.08;24.70;;;;;;;;;;5077646;28;20059;-62
2021/04/20 00:33:19;;;;;;;25.27;18.73;;;;;;;;;;5077822;28;20045;-63
2021/04/20 00:36:05;;;;;;;32.85;23.65;;;;;;;;;;5077769;28;20392;-62
2021/04/20 00:38:51;;;;;;;34.40;23.73;;;;;;;;;;5034952;28;20091;-62
2021/04/20 00:41:37;;;;;;;34.53;23.73;;;;;;;;;;5034381;28;20049;-61
2021/04/20 00:44:22;;;;;;;39.42;26.40;;;;;;;;;;5034549;28;20492;-62
2021/04/20 00:47:08;;;;;;;36.63;24.13;;;;;;;;;;5043909;28;20380;-63
2021/04/20 00:49:54;;;;;;;42.92;27.08;;;;;;;;;;5057241;28;20438;-62
2021/04/20 00:52:40;;;;;;;39.75;28.13;;;;;;;;;;5039481;28;20045;-62
2021/04/20 00:55:26;;;;;;;41.72;27.67;;;;;;;;;;5054461;28;20045;-62
2021/04/20 00:58:12;;;;;;;39.78;27.75;;;;;;;;;;5049501;28;20502;-62
2021/04/20 01:00:58;;;;;;;46.03;31.08;;;;;;;;;;5074202;28;20045;-62
2021/04/20 01:03:44;;;;;;;42.08;28.88;;;;;;;;;;5074205;28;20049;-62
2021/04/20 01:06:30;;;;;;;50.40;32.30;;;;;;;;;;5074258;28;20045;-62
2021/04/20 01:09:16;;;;;;;45.63;30.63;;;;;;;;;;5056701;28;20045;-62
2021/04/20 01:12:02;;;;;;;44.22;29.52;;;;;;;;;;5054098;28;20128;-62
2021/04/20 01:14:47;;;;;;;43.97;28.65;;;;;;;;;;5053889;28;20518;-61
2021/04/20 01:17:33;;;;;;;47.40;31.75;;;;;;;;;;5039030;28;20067;-61
2021/04/20 01:20:19;;;;;;;48.72;31.08;;;;;;;;;;5033821;28;20558;-61
2021/04/20 01:23:05;;;;;;;44.50;29.98;;;;;;;;;;5033909;28;20055;-61
2021/04/20 01:25:51;;;;;;;41.63;27.13;;;;;;;;;;5033080;28;20081;-61
2021/04/20 01:28:37;;;;;;;37.78;26.23;;;;;;;;;;5043355;28;20384;-61
2021/04/20 01:31:23;;;;;;;41.00;28.02;;;;;;;;;;5072510;28;20071;-61
2021/04/20 01:34:08;;;;;;;52.40;32.55;;;;;;;;;;5072633;28;20055;-61
2021/04/20 01:36:54;;;;;;;51.75;31.92;;;;;;;;;;5073678;28;20049;-61
2021/04/20 01:39:43;;;;;;;45.17;30.15;;;;;;;;;;5062060;28;20160;-61
2021/04/20 01:42:29;;;;;;;44.70;29.67;;;;;;;;;;5053528;28;20041;-61
2021/04/20 01:45:15;;;;;;;47.15;29.75;;;;;;;;;;5053446;28;20076;-61
2021/04/20 01:48:01;;;;;;;52.78;33.38;;;;;;;;;;5053324;28;20067;-61
2021/04/20 01:50:46;;;;;;;63.17;37.00;;;;;;;;;;5069025;28;20109;-62
2021/04/20 01:53:32;;;;;;;60.33;35.08;;;;;;;;;;5073445;28;20131;-61
2021/04/20 01:56:18;;;;;;;50.67;33.53;;;;;;;;;;5073291;28;20124;-61
2021/04/20 01:59:03;;;;;;;53.53;34.95;;;;;;;;;;5072583;28;20052;-61
2021/04/20 02:01:50;;;;;;;55.97;33.50;;;;;;;;;;5038325;28;20124;-61
2021/04/20 02:04:35;;;;;;;54.03;33.83;;;;;;;;;;5024102;28;20045;-61
2021/04/20 02:07:21;;;;;;;42.47;28.40;;;;;;;;;;5052953;28;20127;-61
2021/04/20 02:10:08;;;;;;;42.13;28.70;;;;;;;;;;5018167;28;20052;-61
2021/04/20 02:12:53;;;;;;;44.53;30.67;;;;;;;;;;5033032;28;20124;-62
2021/04/20 02:15:39;;;;;;;67.15;39.00;;;;;;;;;;5018210;28;20046;-61
2021/04/20 02:18:25;;;;;;;57.72;36.10;;;;;;;;;;5028677;28;20041;-61
2021/04/20 02:21:11;;;;;;;57.60;33.50;;;;;;;;;;5072446;28;20051;-61
2021/04/20 02:23:57;;;;;;;50.75;32.67;;;;;;;;;;5057450;28;20517;-62
2021/04/20 02:26:43;;;;;;;48.95;31.35;;;;;;;;;;5071582;28;20098;-61
2021/04/20 02:29:29;;;;;;;48.80;29.77;;;;;;;;;;5060793;28;20045;-61
2021/04/20 02:32:15;;;;;;;45.22;30.20;;;;;;;;;;5052377;28;20534;-61
2021/04/20 02:35:01;;;;;;;50.88;31.20;;;;;;;;;;5052603;28;20045;-61
2021/04/20 02:37:47;;;;;;;51.65;34.50;;;;;;;;;;5052284;28;20077;-62
2021/04/20 02:40:33;;;;;;;51.90;33.78;;;;;;;;;;5069002;28;20040;-61
2021/04/20 02:43:19;;;;;;;53.78;33.33;;;;;;;;;;5072414;28;20045;-61
2021/04/20 02:46:05;;;;;;;56.42;32.42;;;;;;;;;;5072277;28;20079;-61
2021/04/20 02:48:51;;;;;;;50.92;32.28;;;;;;;;;;5070811;28;20040;-61
2021/04/20 02:51:37;;;;;;;42.88;28.42;;;;;;;;;;5044970;28;20124;-61
2021/04/20 02:54:23;;;;;;;43.20;27.20;;;;;;;;;;5052214;28;20060;-61
2021/04/20 02:57:08;;;;;;;39.15;26.70;;;;;;;;;;5051006;28;20423;-61
2021/04/20 02:59:54;;;;;;;40.08;27.45;;;;;;;;;;5041910;28;20548;-61
2021/04/20 03:02:42;;;;;;;41.85;27.60;;;;;;;;;;5070677;28;20594;-61
2021/04/20 03:05:28;;;;;;;35.88;24.88;;;;;;;;;;5071974;28;20436;-61
2021/04/20 03:08:13;;;;;;;43.67;28.48;;;;;;;;;;5071967;28;20483;-61
2021/04/20 03:11:06;;;;;;;48.38;31.67;;;;;;;;;;5058479;28;20594;-61
2021/04/20 03:13:51;;;;;;;38.92;26.58;;;;;;;;;;5051919;28;20053;-61
2021/04/20 03:16:37;;;;;;;35.63;24.35;;;;;;;;;;5037115;28;20044;-62
2021/04/20 03:19:23;;;;;;;42.00;29.33;;;;;;;;;;5036811;28;20056;-62
2021/04/20 03:22:08;;;;;;;41.25;29.27;;;;;;;;;;5055103;28;20543;-61
2021/04/20 03:24:57;;;;;;;42.80;29.52;;;;;;;;;;5070737;28;20052;-61
2021/04/20 03:27:45;;;;;;;41.10;26.95;;;;;;;;;;5071654;28;20514;-61
2021/04/20 03:30:31;;;;;;;47.50;31.02;;;;;;;;;;5068976;28;20040;-61
2021/04/20 03:33:19;;;;;;;37.55;25.73;;;;;;;;;;5051879;28;20069;-61
2021/04/20 03:36:05;;;;;;;37.60;25.38;;;;;;;;;;5036963;28;20134;-62
2021/04/20 03:38:50;;;;;;;47.92;29.85;;;;;;;;;;5051400;28;20049;-61
2021/04/20 03:41:37;;;;;;;47.25;30.95;;;;;;;;;;5044424;28;20041;-61
2021/04/20 03:44:25;;;;;;;46.83;31.90;;;;;;;;;;5071024;28;20040;-61
2021/04/20 03:47:21;;;;;;;54.30;33.58;;;;;;;;;;5070783;28;20048;-61
2021/04/20 03:50:07;;;;;;;53.92;34.28;;;;;;;;;;5070474;28;20040;-61
2021/04/20 03:52:55;;;;;;;61.30;38.38;;;;;;;;;;5054243;28;20127;-61
2021/04/20 03:55:40;;;;;;;62.10;38.55;;;;;;;;;;5036560;28;20049;-60
2021/04/20 03:58:26;;;;;;;81.57;45.50;;;;;;;;;;5051562;28;20079;-61
2021/04/20 04:01:12;;;;;;;57.72;35.88;;;;;;;;;;5036372;28;20049;-61
2021/04/20 04:03:58;;;;;;;75.57;44.65;;;;;;;;;;5016718;28;20049;-61
2021/04/20 04:06:44;;;;;;;73.63;43.78;;;;;;;;;;5016749;28;20411;-61
2021/04/20 04:09:29;;;;;;;72.97;41.05;;;;;;;;;;5016413;28;20566;-61
2021/04/20 04:12:15;;;;;;;60.20;37.58;;;;;;;;;;5027093;28;20044;-61
2021/04/20 04:15:01;;;;;;;67.53;40.10;;;;;;;;;;5073621;28;20652;-61
2021/04/20 04:17:46;;;;;;;67.20;39.47;;;;;;;;;;5074053;28;20052;-62
2021/04/20 04:20:33;;;;;;;84.07;46.47;;;;;;;;;;5073733;28;20056;-61
2021/04/20 04:23:21;;;;;;;70.32;40.13;;;;;;;;;;5063981;28;20049;-61
2021/04/20 04:26:11;;;;;;;88.03;47.80;;;;;;;;;;5054905;28;20040;-61
2021/04/20 04:28:58;;;;;;;93.13;48.17;;;;;;;;;;5039914;28;20053;-61
2021/04/20 04:31:44;;;;;;;93.75;50.38;;;;;;;;;;5054624;28;20045;-61
2021/04/20 04:34:30;;;;;;;100.07;53.58;;;;;;;;;;5072480;28;20048;-61
2021/04/20 04:37:16;;;;;;;94.65;51.03;;;;;;;;;;5073497;28;20055;-61
2021/04/20 04:40:05;;;;;;;79.85;46.70;;;;;;;;;;5074443;28;20040;-61
2021/04/20 04:42:52;;;;;;;93.75;48.78;;;;;;;;;;5073050;28;20479;-61
2021/04/20 04:45:37;;;;;;;106.72;54.63;;;;;;;;;;5073467;28;20040;-60
2021/04/20 04:48:43;;;;;;;106.75;56.42;;;;;;;;;;5059762;28;20041;-61
2021/04/20 04:51:30;;;;;;;109.25;56.60;;;;;;;;;;5074249;28;20072;-61
2021/04/20 04:54:17;;;;;;;108.05;56.95;;;;;;;;;;5034452;28;20072;-61
2021/04/20 04:57:03;;;;;;;94.18;47.30;;;;;;;;;;5034551;28;20053;-61
2021/04/20 04:59:49;;;;;;;97.70;51.60;;;;;;;;;;5019448;28;20053;-61
2021/04/20 05:02:35;;;;;;;95.53;51.83;;;;;;;;;;5039103;28;20479;-68
2021/04/20 05:05:21;;;;;;;107.57;55.92;;;;;;;;;;5062681;28;20041;-68
2021/04/20 05:08:07;;;;;;;89.82;51.95;;;;;;;;;;5063547;28;20036;-68
2021/04/20 05:11:14;;;;;;;83.90;47.47;;;;;;;;;;5150533;27;20355;-70
2021/04/20 05:14:01;;;;;;;69.45;41.90;;;;;;;;;;5150663;27;20042;-69
2021/04/20 05:16:50;;;;;;;84.93;51.67;;;;;;;;;;5150885;27;20038;-71
2021/04/20 05:19:36;;;;;;;81.80;48.58;;;;;;;;;;5114762;28;20408;-70
2021/04/20 05:22:21;;;;;;;85.38;49.45;;;;;;;;;;5117187;28;20040;-71
2021/04/20 05:25:07;;;;;;;80.75;48.60;;;;;;;;;;5111971;28;20044;-72
2021/04/20 05:27:53;;;;;;;80.35;48.30;;;;;;;;;;5109433;28;20061;-72
2021/04/20 05:30:38;;;;;;;73.53;46.70;;;;;;;;;;5109215;28;20040;-73
2021/04/20 05:33:24;;;;;;;73.00;47.17;;;;;;;;;;5129409;27;20039;-72
2021/04/20 05:36:09;;;;;;;73.65;44.50;;;;;;;;;;5130018;28;20035;-72
2021/04/20 05:38:56;;;;;;;74.40;47.35;;;;;;;;;;5129897;27;20067;-72
2021/04/20 05:41:41;;;;;;;76.88;47.97;;;;;;;;;;5127536;27;20040;-72
2021/04/20 05:44:31;;;;;;;78.03;48.35;;;;;;;;;;5126822;27;20406;-73
2021/04/20 05:47:17;;;;;;;78.43;48.28;;;;;;;;;;5129505;28;20044;-75
2021/04/20 05:50:03;;;;;;;75.75;48.08;;;;;;;;;;5129363;27;20114;-75
2021/04/20 05:52:48;;;;;;;78.25;49.63;;;;;;;;;;5129434;27;20035;-75
2021/04/20 05:55:33;;;;;;;73.93;48.95;;;;;;;;;;5128679;28;20050;-75
2021/04/20 05:58:18;;;;;;;68.50;46.28;;;;;;;;;;5129453;27;20047;-74
2021/04/20 06:01:04;;;;;;;72.97;48.15;;;;;;;;;;5129231;28;20047;-76
2021/04/20 06:03:49;;;;;;;67.30;46.88;;;;;;;;;;5129331;27;20050;-75
2021/04/20 06:06:35;;;;;;;74.28;48.42;;;;;;;;;;5129333;27;20043;-75
2021/04/20 06:09:20;;;;;;;62.65;44.17;;;;;;;;;;5127992;27;20043;-74
2021/04/20 06:12:06;;;;;;;75.07;48.08;;;;;;;;;;5129160;27;20324;-75
2021/04/20 06:14:52;;;;;;;63.00;45.15;;;;;;;;;;5129374;28;20039;-74
2021/04/20 06:17:40;;;;;;;62.63;45.33;;;;;;;;;;5129056;27;20043;-75
2021/04/20 06:20:25;;;;;;;60.28;43.30;;;;;;;;;;5127603;27;20492;-75
2021/04/20 06:23:10;;;;;;;63.17;43.67;;;;;;;;;;5115158;28;20046;-75
2021/04/20 06:25:59;;;;;;;58.80;39.30;;;;;;;;;;5103830;28;20085;-76
2021/04/20 06:28:44;;;;;;;61.85;44.78;;;;;;;;;;5093658;28;20040;-76
2021/04/20 06:31:29;;;;;;;52.90;40.90;;;;;;;;;;5107669;28;20114;-75
2021/04/20 06:34:15;;;;;;;62.58;44.38;;;;;;;;;;5110082;27;20051;-76
2021/04/20 06:37:00;;;;;;;53.60;39.42;;;;;;;;;;5094586;28;20051;-77
2021/04/20 06:39:45;;;;;;;51.13;39.03;;;;;;;;;;5099882;28;20044;-75
2021/04/20 06:42:31;;;;;;;59.20;42.50;;;;;;;;;;5095775;28;20052;-76
2021/04/20 06:45:17;;;;;;;54.30;39.22;;;;;;;;;;5123410;27;20131;-75
2021/04/20 06:48:23;;;;;;;56.63;39.92;;;;;;;;;;5107849;28;20494;-77
2021/04/20 06:51:15;;;;;;;56.90;39.42;;;;;;;;;;5094397;28;20043;-81
2021/04/20 06:54:01;;;;;;;51.58;38.45;;;;;;;;;;5093263;28;20131;-75
2021/04/20 06:56:51;;;;;;;49.08;37.00;;;;;;;;;;5112718;28;20047;-73
2021/04/20 06:59:39;;;;;;;49.30;35.35;;;;;;;;;;5113525;28;20047;-76
2021/04/20 07:02:39;;;;;;;46.80;36.40;;;;;;;;;;5114708;28;20098;-77
2021/04/20 07:09:45;;;;;;;44.53;32.83;;;;;;;;;;5115663;28;20050;-74
2021/04/20 07:13:25;;;;;;;45.75;34.22;;;;;;;;;;5103110;28;20429;-74
2021/04/20 07:16:17;;;;;;;46.58;34.60;;;;;;;;;;5110795;28;20498;-74
2021/04/20 07:19:05;;;;;;;43.70;35.50;;;;;;;;;;5114246;28;20040;-74
2021/04/20 07:22:00;;;;;;;45.03;33.67;;;;;;;;;;5114106;28;20040;-73
2021/04/20 07:25:03;;;;;;;48.30;35.75;;;;;;;;;;5114366;28;20610;-74
2021/04/20 07:32:22;;;;;;;45.03;34.67;;;;;;;;;;5093248;28;20120;-73
2021/04/20 07:35:26;;;;;;;46.28;35.67;;;;;;;;;;5093379;28;20482;-73
2021/04/20 07:38:16;;;;;;;44.05;33.35;;;;;;;;;;5093253;28;20052;-73
2021/04/20 07:41:12;;;;;;;46.35;32.92;;;;;;;;;;5092184;28;20048;-73
2021/04/20 07:44:15;;;;;;;44.22;33.22;;;;;;;;;;5092493;28;20044;-73
2021/04/20 07:47:03;;;;;;;35.20;28.60;;;;;;;;;;5103645;28;20044;-73
2021/04/20 07:49:52;;;;;;;36.78;28.83;;;;;;;;;;5092037;28;20036;-73
2021/04/20 07:52:39;;;;;;;34.47;28.83;;;;;;;;;;5093333;28;20040;-74
2021/04/20 07:55:25;;;;;;;66.88;27.23;;;;;;;;;;5092212;28;20040;-75
2021/04/20 07:58:10;;;;;;;36.53;27.50;;;;;;;;;;5095246;28;20564;-74
2021/04/20 08:01:13;;;;;;;28.02;23.30;;;;;;;;;;5112325;28;20043;-74
2021/04/20 08:04:11;;;;;;;31.35;25.38;;;;;;;;;;5112314;28;20495;-75
2021/04/20 08:06:58;;;;;;;40.15;24.77;;;;;;;;;;5113186;28;20498;-75
2021/04/20 08:09:44;;;;;;;31.40;22.75;;;;;;;;;;5111921;28;20043;-75
2021/04/20 08:12:29;;;;;;;32.92;22.40;;;;;;;;;;5113243;28;20040;-76
2021/04/20 08:15:15;;;;;;;24.95;21.23;;;;;;;;;;5111813;28;20501;-77
2021/04/20 08:18:27;;;;;;;27.60;22.00;;;;;;;;;;5111968;28;20485;-76
2021/04/20 08:21:14;;;;;;;26.67;21.83;;;;;;;;;;5112924;28;20181;-76
2021/04/20 08:23:59;;;;;;;34.72;22.13;;;;;;;;;;5112077;28;20036;-77
2021/04/20 08:26:45;;;;;;;28.40;21.30;;;;;;;;;;5112002;28;20482;-76
2021/04/20 08:29:31;;;;;;;24.02;20.88;;;;;;;;;;5111729;28;20043;-76
2021/04/20 08:32:18;;;;;;;27.10;21.35;;;;;;;;;;5111815;28;20036;-71
2021/04/20 08:35:09;;;;;;;28.63;20.60;;;;;;;;;;5111935;28;20050;-76
2021/04/20 08:37:55;;;;;;;27.55;21.88;;;;;;;;;;5091441;28;20111;-76
2021/04/20 08:40:41;;;;;;;27.20;20.80;;;;;;;;;;5092291;28;20044;-76
2021/04/20 08:43:26;;;;;;;27.55;20.88;;;;;;;;;;5092404;28;20036;-76
2021/04/20 08:46:14;;;;;;;28.92;23.15;;;;;;;;;;5098464;28;20040;-75
2021/04/20 08:49:05;;;;;;;24.80;22.10;;;;;;;;;;5112649;28;20035;-76
2021/04/20 08:52:07;;;;;;;28.60;22.35;;;;;;;;;;5104105;28;20505;-76
2021/04/20 08:55:02;;;;;;;29.63;20.83;;;;;;;;;;5090978;28;20120;-76
2021/04/20 08:57:47;;;;;;;27.13;22.05;;;;;;;;;;5105767;28;20281;-76
2021/04/20 09:00:43;;;;;;;29.08;21.38;;;;;;;;;;5112349;28;20654;-74
2021/04/20 09:03:47;;;;;;;29.80;22.35;;;;;;;;;;5111492;28;20043;-76
2021/04/20 09:06:34;;;;;;;25.30;20.00;;;;;;;;;;5112252;28;20054;-76
2021/04/20 09:09:20;;;;;;;22.35;17.77;;;;;;;;;;5111250;28;20441;-76
2021/04/20 09:12:10;;;;;;;25.58;18.88;;;;;;;;;;5111483;28;20040;-76
2021/04/20 09:14:55;;;;;;;29.10;19.13;;;;;;;;;;5112241;28;20047;-76
2021/04/20 09:17:44;;;;;;;22.23;19.20;;;;;;;;;;5111186;28;20494;-77
2021/04/20 09:20:30;;;;;;;26.73;19.23;;;;;;;;;;5111047;28;20171;-77
2021/04/20 09:23:37;;;;;;;24.05;18.90;;;;;;;;;;5111324;28;20078;-74
2021/04/20 09:26:36;;;;;;;26.90;19.27;;;;;;;;;;5110839;28;20052;-74
2021/04/20 09:29:22;;;;;;;20.92;16.80;;;;;;;;;;5090599;28;20040;-74
2021/04/20 09:32:08;;;;;;;20.20;15.23;;;;;;;;;;5111976;28;20035;-74
2021/04/20 09:34:54;;;;;;;18.85;15.88;;;;;;;;;;5111033;28;20040;-73
2021/04/20 09:37:40;;;;;;;18.73;14.95;;;;;;;;;;5111967;28;20039;-73
2021/04/20 09:40:25;;;;;;;19.15;15.98;;;;;;;;;;5096342;28;20047;-73
2021/04/20 09:43:13;;;;;;;22.10;14.82;;;;;;;;;;5111012;28;20039;-72
2021/04/20 09:45:58;;;;;;;20.35;15.35;;;;;;;;;;5111082;28;20062;-72
2021/04/20 09:48:52;;;;;;;17.30;15.27;;;;;;;;;;5111984;28;20622;-72
2021/04/20 09:51:39;;;;;;;20.65;15.60;;;;;;;;;;5110343;28;20036;-72
2021/04/20 09:54:25;;;;;;;24.45;17.75;;;;;;;;;;5111098;28;20045;-72
2021/04/20 09:57:11;;;;;;;20.45;16.88;;;;;;;;;;5113297;28;20485;-72
2021/04/20 10:00:04;;;;;;;21.45;15.80;;;;;;;;;;5114493;28;20048;-72
2021/04/20 10:02:52;;;;;;;23.27;16.83;;;;;;;;;;5108409;28;20476;-72
2021/04/20 10:05:46;;;;;;;20.77;16.35;;;;;;;;;;5095356;28;20561;-72
2021/04/20 10:08:35;;;;;;;19.17;15.88;;;;;;;;;;5095118;28;20452;-72
2021/04/20 10:11:33;;;;;;;21.77;15.98;;;;;;;;;;5095807;28;20119;-72
2021/04/20 10:14:23;;;;;;;21.90;16.40;;;;;;;;;;5114441;28;20489;-72
2021/04/20 10:17:14;;;;;;;21.25;16.05;;;;;;;;;;5114520;28;20077;-72
2021/04/20 10:20:19;;;;;;;19.30;15.25;;;;;;;;;;5114288;28;20444;-72
2021/04/20 10:23:04;;;;;;;19.58;15.85;;;;;;;;;;5106113;28;20044;-74
2021/04/20 10:25:50;;;;;;;17.40;13.90;;;;;;;;;;5094622;28;20044;-73
2021/04/20 10:28:38;;;;;;;15.02;12.77;;;;;;;;;;5094435;28;20040;-72
2021/04/20 10:31:31;;;;;;;17.27;13.40;;;;;;;;;;5121860;27;20118;-73
2021/04/20 10:34:17;;;;;;;16.83;13.68;;;;;;;;;;5142061;27;20044;-73
2021/04/20 10:37:02;;;;;;;13.88;10.60;;;;;;;;;;5095085;28;20040;-72
2021/04/20 10:39:49;;;;;;;14.40;11.07;;;;;;;;;;5092664;28;20048;-72
2021/04/20 10:42:36;;;;;;;18.92;11.63;;;;;;;;;;5094528;28;20152;-72
2021/04/20 10:45:24;;;;;;;16.60;11.70;;;;;;;;;;5113784;28;20035;-65
2021/04/20 10:48:09;;;;;;;16.17;10.15;;;;;;;;;;5114103;28;20039;-65
2021/04/20 10:50:55;;;;;;;13.68;10.48;;;;;;;;;;5113691;28;20047;-65
2021/04/20 10:53:40;;;;;;;16.67;11.10;;;;;;;;;;5113730;28;20048;-65
2021/04/20 10:56:26;;;;;;;28.88;8.65;;;;;;;;;;5113715;28;20130;-65
2021/04/20 10:59:11;;;;;;;9.70;7.60;;;;;;;;;;5114787;28;20044;-65
2021/04/20 11:01:57;;;;;;;11.43;7.35;;;;;;;;;;5113664;28;20131;-62
2021/04/20 11:04:43;;;;;;;11.60;6.53;;;;;;;;;;5113058;28;20052;-62
2021/04/20 11:07:30;;;;;;;7.95;5.10;;;;;;;;;;5114414;28;20119;-63
2021/04/20 11:10:16;;;;;;;8.10;6.00;;;;;;;;;;5114202;28;20648;-63
2021/04/20 11:13:01;;;;;;;7.32;5.00;;;;;;;;;;5114441;28;20043;-63
2021/04/20 11:15:46;;;;;;;8.43;5.75;;;;;;;;;;5113067;28;20055;-63
2021/04/20 11:18:34;;;;;;;9.60;6.50;;;;;;;;;;5113217;28;20044;-63
2021/04/20 11:21:24;;;;;;;7.63;6.63;;;;;;;;;;5113694;28;20044;-63
2021/04/20 11:24:13;;;;;;;9.63;5.47;;;;;;;;;;5114255;28;20035;-63
2021/04/20 11:26:59;;;;;;;11.18;6.40;;;;;;;;;;5113823;28;20058;-62
2021/04/20 11:29:49;;;;;;;8.30;5.60;;;;;;;;;;5112843;28;20094;-62
2021/04/20 11:32:35;;;;;;;9.05;5.28;;;;;;;;;;5113103;28;20050;-62
2021/04/20 11:35:21;;;;;;;10.77;6.22;;;;;;;;;;5113794;28;20653;-62
2021/04/20 11:38:06;;;;;;;8.18;4.93;;;;;;;;;;5123741;22;20138;-64
2021/04/20 11:41:02;;;;;;;9.48;5.45;;;;;;;;;;5092421;28;20048;-64
2021/04/20 11:43:53;;;;;;;9.20;5.85;;;;;;;;;;5091691;28;20044;-64
2021/04/20 11:46:39;;;;;;;9.32;6.05;;;;;;;;;;5093265;28;20119;-64
2021/04/20 11:49:25;;;;;;;13.32;5.50;;;;;;;;;;5077608;28;20093;-64
2021/04/20 11:52:15;;;;;;;8.43;5.47;;;;;;;;;;5078168;28;20127;-64
2021/04/20 11:55:10;;;;;;;8.45;5.10;;;;;;;;;;5077809;28;20040;-64
2021/04/20 11:58:00;;;;;;;8.80;5.88;;;;;;;;;;5077692;28;20501;-63
2021/04/20 12:00:46;;;;;;;13.88;6.13;;;;;;;;;;5077758;28;20052;-64
2021/04/20 12:03:31;;;;;;;7.18;4.32;;;;;;;;;;5093045;28;20040;-64
2021/04/20 12:06:16;;;;;;;10.45;4.35;;;;;;;;;;5092681;28;20044;-64
2021/04/20 12:09:01;;;;;;;10.88;5.85;;;;;;;;;;5092034;28;20456;-64
2021/04/20 12:11:47;;;;;;;11.43;5.80;;;;;;;;;;5077424;28;20493;-64
2021/04/20 12:14:33;;;;;;;9.05;5.32;;;;;;;;;;5092906;28;20502;-65
2021/04/20 12:17:26;;;;;;;8.18;5.45;;;;;;;;;;5089417;28;20048;-64
2021/04/20 12:20:13;;;;;;;10.00;5.70;;;;;;;;;;5091102;28;20387;-65
2021/04/20 12:22:59;;;;;;;7.90;5.47;;;;;;;;;;5092873;28;20048;-65
2021/04/20 12:25:49;;;;;;;7.57;5.47;;;;;;;;;;5092428;28;20032;-64
2021/04/20 12:28:39;;;;;;;10.43;5.35;;;;;;;;;;5077435;28;20036;-65
2021/04/20 12:31:31;;;;;;;9.73;5.53;;;;;;;;;;5077308;28;20044;-65
2021/04/20 12:34:18;;;;;;;17.40;5.32;;;;;;;;;;5092528;28;20040;-65
2021/04/20 12:37:04;;;;;;;9.05;5.22;;;;;;;;;;5090633;28;20502;-65
2021/04/20 12:39:50;;;;;;;6.72;4.50;;;;;;;;;;5075292;28;20047;-65
2021/04/20 12:42:37;;;;;;;8.55;4.82;;;;;;;;;;5075712;28;20681;-65
2021/04/20 12:45:26;;;;;;;10.15;5.18;;;;;;;;;;5077033;28;20056;-65
2021/04/20 12:48:11;;;;;;;8.50;4.95;;;;;;;;;;5077009;28;20051;-65
2021/04/20 12:50:56;;;;;;;10.25;5.00;;;;;;;;;;5076720;28;20444;-65
2021/04/20 12:53:42;;;;;;;6.72;4.47;;;;;;;;;;5092360;28;20648;-65
2021/04/20 12:56:28;;;;;;;6.15;4.25;;;;;;;;;;5076754;28;20036;-65
2021/04/20 12:59:22;;;;;;;5.93;4.70;;;;;;;;;;5076978;28;20429;-65
2021/04/20 13:02:07;;;;;;;6.28;4.18;;;;;;;;;;5091987;28;20493;-65
2021/04/20 13:04:52;;;;;;;8.10;4.38;;;;;;;;;;5091848;28;20056;-65
2021/04/20 13:07:37;;;;;;;8.88;4.47;;;;;;;;;;5090947;28;20490;-65
2021/04/20 13:10:23;;;;;;;12.00;4.70;;;;;;;;;;5090755;28;20426;-65
2021/04/20 13:13:12;;;;;;;7.13;4.22;;;;;;;;;;5092056;28;20047;-65
2021/04/20 13:15:58;;;;;;;8.70;5.13;;;;;;;;;;5091736;28;20032;-65
2021/04/20 13:18:44;;;;;;;7.22;4.25;;;;;;;;;;5092028;28;20048;-65
2021/04/20 13:21:31;;;;;;;7.30;4.30;;;;;;;;;;5076687;28;20044;-65
2021/04/20 13:24:16;;;;;;;6.05;4.15;;;;;;;;;;5091660;28;20127;-66
2021/04/20 13:27:02;;;;;;;8.55;4.00;;;;;;;;;;5076476;28;20044;-65
2021/04/20 13:29:47;;;;;;;7.55;3.95;;;;;;;;;;5091199;28;20044;-65
2021/04/20 13:32:33;;;;;;;7.22;4.47;;;;;;;;;;5094381;28;20413;-65
2021/04/20 13:35:18;;;;;;;9.68;4.60;;;;;;;;;;5094682;28;20119;-65
2021/04/20 13:38:03;;;;;;;6.03;4.45;;;;;;;;;;5081069;28;20433;-65
2021/04/20 13:40:49;;;;;;;6.47;4.18;;;;;;;;;;5095344;28;20123;-66
2021/04/20 13:43:34;;;;;;;5.38;3.88;;;;;;;;;;5095865;28;20036;-65
2021/04/20 13:46:20;;;;;;;6.75;4.00;;;;;;;;;;5095577;28;20448;-66
2021/04/20 13:49:05;;;;;;;6.57;4.22;;;;;;;;;;5094654;28;20459;-66
2021/04/20 13:51:52;;;;;;;7.05;4.40;;;;;;;;;;5094505;28;20119;-66
2021/04/20 13:54:37;;;;;;;5.07;4.05;;;;;;;;;;5095664;28;20051;-65
2021/04/20 13:57:30;;;;;;;9.02;4.47;;;;;;;;;;5092790;28;20044;-66
2021/04/20 14:00:16;;;;;;;9.65;5.05;;;;;;;;;;5095203;28;20044;-66
2021/04/20 14:03:01;;;;;;;6.20;4.38;;;;;;;;;;5095398;28;20052;-66
2021/04/20 14:05:47;;;;;;;6.75;4.10;;;;;;;;;;5095346;28;20112;-66
2021/04/20 14:08:32;;;;;;;7.32;4.43;;;;;;;;;;5080022;28;20044;-66
2021/04/20 14:11:17;;;;;;;7.60;3.80;;;;;;;;;;5094119;28;20048;-66
2021/04/20 14:14:02;;;;;;;7.28;4.00;;;;;;;;;;5094335;28;20043;-65
2021/04/20 14:16:49;;;;;;;7.20;4.25;;;;;;;;;;5095154;28;20044;-65
2021/04/20 14:19:34;;;;;;;9.23;4.40;;;;;;;;;;5079904;28;20048;-65
2021/04/20 14:22:20;;;;;;;6.30;3.72;;;;;;;;;;5080042;28;20040;-65
2021/04/20 14:25:06;;;;;;;6.50;4.15;;;;;;;;;;5065763;28;20040;-65
2021/04/20 14:27:55;;;;;;;7.93;3.92;;;;;;;;;;5089425;28;20048;-65
2021/04/20 14:30:40;;;;;;;3.92;2.90;;;;;;;;;;5089876;28;20063;-65
2021/04/20 14:33:30;;;;;;;5.93;3.28;;;;;;;;;;5079959;28;20044;-65
2021/04/20 14:36:17;;;;;;;5.50;3.55;;;;;;;;;;5079554;28;20418;-65
2021/04/20 14:39:08;;;;;;;5.57;3.38;;;;;;;;;;5094229;28;20043;-65
2021/04/20 14:41:53;;;;;;;10.57;3.77;;;;;;;;;;5094415;28;20048;-65
2021/04/20 14:44:40;;;;;;;5.32;3.30;;;;;;;;;;5094011;28;20436;-65
2021/04/20 14:47:29;;;;;;;6.82;3.65;;;;;;;;;;5094062;28;20052;-65
2021/04/20 14:50:14;;;;;;;5.80;3.58;;;;;;;;;;5079165;28;20482;-65
2021/04/20 14:53:03;;;;;;;8.75;3.08;;;;;;;;;;5094250;28;20047;-65
2021/04/20 14:55:50;;;;;;;7.25;3.63;;;;;;;;;;5098113;28;20040;-65
2021/04/20 14:58:36;;;;;;;5.45;3.28;;;;;;;;;;5079013;28;20115;-65
2021/04/20 15:01:23;;;;;;;6.50;3.28;;;;;;;;;;5073764;28;20422;-65
2021/04/20 15:04:09;;;;;;;7.10;3.40;;;;;;;;;;5058900;28;20045;-65
2021/04/20 15:06:58;;;;;;;6.60;3.42;;;;;;;;;;5073937;28;20049;-65
2021/04/20 15:09:48;;;;;;;7.45;3.13;;;;;;;;;;5080677;28;20468;-65
2021/04/20 15:12:42;;;;;;;9.63;3.90;;;;;;;;;;5093846;28;20048;-65
2021/04/20 15:15:32;;;;;;;5.35;2.85;;;;;;;;;;5094072;28;20040;-65
2021/04/20 15:18:20;;;;;;;6.22;3.72;;;;;;;;;;5078587;28;20047;-65
2021/04/20 15:21:18;;;;;;;5.35;3.10;;;;;;;;;;5078300;28;20307;-65
2021/04/20 15:24:07;;;;;;;5.28;3.17;;;;;;;;;;5092185;28;20468;-65
2021/04/20 15:26:57;;;;;;;5.38;3.15;;;;;;;;;;5093438;28;20036;-65
2021/04/20 15:29:43;;;;;;;6.43;2.67;;;;;;;;;;5093423;28;20040;-65
2021/04/20 15:32:35;;;;;;;28.92;4.10;;;;;;;;;;5064258;28;20040;-65
2021/04/20 15:35:25;;;;;;;14.57;2.88;;;;;;;;;;5078384;28;20048;-65
2021/04/20 15:38:24;;;;;;;6.05;2.35;;;;;;;;;;5093135;28;20047;-65
2021/04/20 15:41:10;;;;;;;5.38;2.47;;;;;;;;;;5077209;28;20048;-65
2021/04/20 15:43:55;;;;;;;5.93;2.75;;;;;;;;;;5077114;28;20047;-65
2021/04/20 15:46:46;;;;;;;4.18;2.63;;;;;;;;;;5076727;28;20482;-65
2021/04/20 15:49:37;;;;;;;5.13;2.50;;;;;;;;;;5065710;28;20045;-65
2021/04/20 15:52:23;;;;;;;5.60;2.58;;;;;;;;;;5086886;28;20055;-65
2021/04/20 15:55:15;;;;;;;3.67;2.42;;;;;;;;;;5089623;28;20044;-65
2021/04/20 15:58:00;;;;;;;;;;;;;;;;;;5076122;28;20036;-65
2021/04/20 16:00:45;;;;;;;7.68;3.17;;;;;;;;;;5090955;28;20080;-65
2021/04/20 16:03:31;;;;;;;5.43;2.55;;;;;;;;;;5096547;28;20043;-65
2021/04/20 16:06:16;;;;;;;4.70;2.55;;;;;;;;;;5094983;28;20527;-65
2021/04/20 16:09:02;;;;;;;7.13;2.65;;;;;;;;;;5095815;28;20048;-65
2021/04/20 16:11:48;;;;;;;4.85;2.20;;;;;;;;;;5088946;28;20067;-65
2021/04/20 16:14:36;;;;;;;5.32;2.58;;;;;;;;;;5075951;28;20054;-65
2021/04/20 16:17:22;;;;;;;3.70;2.47;;;;;;;;;;5085875;28;20060;-65
2021/04/20 16:20:12;;;;;;;3.38;2.35;;;;;;;;;;5089738;28;20123;-65
2021/04/20 16:22:58;;;;;;;9.10;2.83;;;;;;;;;;5075082;28;20048;-65
2021/04/20 16:25:44;;;;;;;4.22;2.25;;;;;;;;;;5089695;28;20398;-65
2021/04/20 16:28:31;;;;;;;6.90;2.22;;;;;;;;;;5089932;28;20074;-64
2021/04/20 16:31:27;;;;;;;4.53;2.08;;;;;;;;;;5089644;28;20056;-64
2021/04/20 16:34:13;;;;;;;7.15;2.65;;;;;;;;;;5054840;28;20044;-64